createdAt,value
2023-02-07T17:32:58.447Z,6.72
2023-02-07T17:35:25.102Z,7.32
2023-02-07T17:37:52.134Z,8.02
2023-02-07T17:40:28.299Z,6.97
2023-02-07T17:42:54.969Z,5.90
2023-02-07T17:45:22.063Z,5.63
2023-02-07T17:47:48.729Z,5.80
2023-02-07T17:50:18.106Z,5.63
2023-02-07T17:52:45.382Z,5.32
2023-02-07T17:55:12.305Z,5.60
2023-02-07T17:57:40.167Z,7.20
2023-02-07T18:00:08.455Z,6.18
2023-02-07T18:02:35.614Z,5.50
2023-02-07T18:05:02.372Z,5.93
2023-02-07T18:07:28.961Z,6.13
2023-02-07T18:09:55.646Z,5.10
2023-02-07T18:12:22.307Z,5.70
2023-02-07T18:14:51.148Z,5.43
2023-02-07T18:17:18.572Z,6.00
2023-02-07T18:19:45.372Z,5.95
2023-02-07T18:22:11.996Z,5.30
2023-02-07T18:24:39.133Z,5.90
2023-02-07T18:27:05.757Z,5.97
2023-02-07T18:29:32.378Z,8.85
2023-02-07T18:31:59.322Z,10.63
2023-02-07T18:34:26.008Z,11.10
2023-02-07T18:36:52.713Z,8.77
2023-02-07T18:39:19.834Z,8.57
2023-02-07T18:41:46.438Z,8.00
2023-02-07T18:44:13.768Z,8.02
2023-02-07T18:46:40.560Z,7.65
2023-02-07T18:49:07.246Z,7.80
2023-02-07T18:51:34.132Z,7.50
2023-02-07T18:54:00.908Z,6.65
2023-02-07T18:56:27.658Z,7.47
2023-02-07T18:58:56.651Z,7.85
2023-02-07T19:01:25.629Z,7.32
2023-02-07T19:03:58.233Z,7.43
2023-02-07T19:06:27.519Z,7.28
2023-02-07T19:08:54.163Z,7.57
2023-02-07T19:11:20.967Z,7.30
2023-02-07T19:13:47.838Z,7.53
2023-02-07T19:16:20.495Z,7.43
2023-02-07T19:18:48.485Z,7.13
2023-02-07T19:21:23.748Z,7.72
2023-02-07T19:23:51.299Z,6.95
2023-02-07T19:26:18.041Z,7.82
2023-02-07T19:28:44.825Z,7.40
2023-02-07T19:31:17.840Z,7.93
2023-02-07T19:33:45.686Z,10.82
2023-02-07T19:36:13.417Z,7.95
2023-02-07T19:38:40.448Z,9.98
2023-02-07T19:41:08.126Z,9.63
2023-02-07T19:43:36.013Z,8.25
2023-02-07T19:46:03.197Z,8.70
2023-02-07T19:48:30.034Z,8.38
2023-02-07T19:51:10.035Z,7.70
2023-02-07T19:53:37.330Z,8.23
2023-02-07T19:56:08.846Z,8.52
2023-02-07T19:58:35.648Z,8.05
2023-02-07T20:01:02.347Z,9.02
2023-02-07T20:03:29.606Z,8.73
2023-02-07T20:06:00.029Z,9.90
2023-02-07T20:08:27.109Z,9.30
2023-02-07T20:10:53.887Z,9.15
2023-02-07T20:13:20.786Z,9.45
2023-02-07T20:15:47.656Z,8.88
2023-02-07T20:18:14.608Z,8.30
2023-02-07T20:20:43.352Z,8.75
2023-02-07T20:23:10.937Z,9.32
2023-02-07T20:25:38.603Z,11.18
2023-02-07T20:28:07.448Z,12.48
2023-02-07T20:30:35.182Z,11.43
2023-02-07T20:33:02.052Z,9.68
2023-02-07T20:35:28.812Z,10.52
2023-02-07T20:37:55.682Z,8.68
2023-02-07T20:40:22.428Z,7.55
2023-02-07T20:42:49.082Z,7.32
2023-02-07T20:45:15.670Z,7.22
2023-02-07T20:47:42.302Z,7.88
2023-02-07T20:50:09.299Z,7.50
2023-02-07T20:52:37.442Z,8.10
2023-02-07T20:55:05.775Z,7.55
2023-02-07T20:57:32.637Z,7.55
2023-02-07T20:59:59.369Z,6.80
2023-02-07T21:02:26.284Z,6.47
2023-02-07T21:04:52.950Z,7.20
2023-02-07T21:07:19.626Z,7.10
2023-02-07T21:09:46.471Z,7.03
2023-02-07T21:12:13.300Z,6.65
2023-02-07T21:14:41.469Z,7.10
2023-02-07T21:17:08.547Z,7.15
2023-02-07T21:19:37.148Z,7.18
2023-02-07T21:22:04.453Z,7.40
2023-02-07T21:24:31.309Z,7.78
2023-02-07T21:26:58.089Z,6.45
2023-02-07T21:29:25.356Z,6.68
2023-02-07T21:31:53.736Z,6.50
2023-02-07T21:34:25.411Z,6.95
2023-02-07T21:36:52.536Z,6.95
2023-02-07T21:39:19.783Z,7.45
2023-02-07T21:41:47.897Z,7.07
2023-02-07T21:44:15.370Z,7.78
2023-02-07T21:46:45.986Z,7.75
2023-02-07T21:49:14.761Z,7.15
2023-02-07T21:51:42.841Z,7.53
2023-02-07T21:54:09.633Z,7.32
2023-02-07T21:56:41.094Z,7.60
2023-02-07T21:59:15.737Z,7.72
2023-02-07T22:04:10.840Z,7.07
2023-02-07T22:06:41.732Z,7.15
2023-02-07T22:09:11.178Z,7.68
2023-02-07T22:11:37.785Z,7.30
2023-02-07T22:14:04.695Z,7.60
2023-02-07T22:16:32.245Z,8.07
2023-02-07T22:19:01.065Z,7.22
2023-02-07T22:21:30.451Z,7.50
2023-02-07T22:23:58.362Z,7.15
2023-02-07T22:26:25.517Z,7.40
2023-02-07T22:28:52.904Z,9.07
2023-02-07T22:31:28.167Z,9.35
2023-02-07T22:33:58.722Z,9.27
2023-02-07T22:36:28.225Z,8.18
2023-02-07T22:38:55.817Z,7.68
2023-02-07T22:41:22.863Z,8.00
2023-02-07T22:43:49.848Z,7.00
2023-02-07T22:46:19.324Z,7.43
2023-02-07T22:48:46.511Z,7.55
2023-02-07T22:51:15.206Z,7.07
2023-02-07T22:53:42.029Z,7.53
2023-02-07T22:56:09.637Z,7.47
2023-02-07T22:58:36.592Z,7.68
2023-02-07T23:01:05.843Z,7.43
2023-02-07T23:03:33.559Z,7.20
2023-02-07T23:06:05.200Z,7.10
2023-02-07T23:08:31.861Z,7.07
2023-02-07T23:10:58.580Z,7.35
2023-02-07T23:13:25.213Z,7.78
2023-02-07T23:15:53.727Z,7.13
2023-02-07T23:18:20.665Z,7.20
2023-02-07T23:20:47.488Z,6.93
2023-02-07T23:23:14.097Z,7.47
2023-02-07T23:25:43.702Z,7.40
2023-02-07T23:28:11.030Z,7.32
2023-02-07T23:30:38.092Z,8.35
2023-02-07T23:33:06.352Z,7.78
2023-02-07T23:35:33.435Z,8.18
2023-02-07T23:38:01.743Z,7.60
2023-02-07T23:40:29.644Z,8.48
2023-02-07T23:42:56.314Z,8.60
2023-02-07T23:45:22.936Z,8.88
2023-02-07T23:47:49.536Z,9.50
2023-02-07T23:50:18.360Z,9.68
2023-02-07T23:52:45.035Z,9.93
2023-02-07T23:55:11.706Z,10.30
2023-02-07T23:57:38.387Z,9.85
